createdAt,value
2023-01-29T00:00:00.791Z,26.70
2023-01-29T00:02:27.327Z,29.90
2023-01-29T00:04:58.735Z,28.90
2023-01-29T00:07:25.526Z,28.80
2023-01-29T00:09:52.192Z,26.50
2023-01-29T00:12:18.611Z,27.80
2023-01-29T00:14:45.144Z,23.70
2023-01-29T00:17:11.898Z,24.30
2023-01-29T00:19:38.689Z,26.30
2023-01-29T00:22:05.286Z,25.10
2023-01-29T00:24:31.831Z,24.60
2023-01-29T00:26:58.291Z,24.00
2023-01-29T00:29:24.780Z,24.80
2023-01-29T00:31:51.518Z,23.90
2023-01-29T00:34:18.287Z,23.90
2023-01-29T00:36:44.829Z,23.20
2023-01-29T00:39:11.371Z,23.90
2023-01-29T00:41:38.624Z,23.10
2023-01-29T00:44:06.656Z,26.70
2023-01-29T00:46:33.250Z,22.20
2023-01-29T00:49:00.932Z,22.40
2023-01-29T00:51:27.661Z,20.80
2023-01-29T00:53:54.134Z,21.60
2023-01-29T00:56:20.754Z,19.90
2023-01-29T00:58:47.187Z,21.70
2023-01-29T01:01:13.931Z,20.20
2023-01-29T01:03:40.465Z,19.90
2023-01-29T01:06:10.369Z,19.70
2023-01-29T01:08:37.228Z,19.00
2023-01-29T01:11:07.463Z,20.90
2023-01-29T01:13:35.535Z,21.40
2023-01-29T01:16:02.037Z,20.50
2023-01-29T01:18:31.592Z,19.80
2023-01-29T01:20:58.636Z,19.10
2023-01-29T01:23:25.805Z,20.40
2023-01-29T01:25:52.338Z,21.20
2023-01-29T01:28:18.876Z,20.70
2023-01-29T01:30:45.449Z,21.80
2023-01-29T01:33:12.060Z,19.90
2023-01-29T01:35:39.647Z,21.20
2023-01-29T01:38:06.264Z,22.20
2023-01-29T01:40:33.128Z,21.70
2023-01-29T01:43:00.844Z,22.70
2023-01-29T01:45:37.512Z,21.90
2023-01-29T01:48:12.827Z,21.00
2023-01-29T01:50:46.756Z,21.40
2023-01-29T01:53:20.725Z,21.50
2023-01-29T01:55:54.529Z,22.80
2023-01-29T01:58:33.627Z,22.40
2023-01-29T02:01:01.399Z,21.70
2023-01-29T02:03:31.380Z,22.40
2023-01-29T02:05:59.977Z,21.80
2023-01-29T02:08:37.920Z,21.80
2023-01-29T02:11:06.076Z,21.40
2023-01-29T02:13:32.587Z,20.80
2023-01-29T02:15:59.119Z,21.80
2023-01-29T02:18:25.907Z,22.00
2023-01-29T02:21:08.231Z,21.90
2023-01-29T02:23:56.625Z,19.80
2023-01-29T02:26:42.233Z,21.20
2023-01-29T02:29:23.211Z,21.40
2023-01-29T02:32:08.852Z,21.20
2023-01-29T02:34:53.367Z,21.30
2023-01-29T02:37:25.971Z,22.10
2023-01-29T02:40:05.126Z,20.40
2023-01-29T02:42:38.875Z,19.10
2023-01-29T02:45:22.636Z,19.40
2023-01-29T02:47:58.258Z,19.80
2023-01-29T02:50:36.742Z,19.90
2023-01-29T02:53:14.272Z,20.20
2023-01-29T02:56:13.474Z,18.80
2023-01-29T02:58:43.631Z,19.20
2023-01-29T03:01:17.195Z,18.50
2023-01-29T03:03:49.479Z,16.80
2023-01-29T03:06:42.073Z,17.40
2023-01-29T03:09:24.355Z,19.50
2023-01-29T03:11:54.605Z,17.50
2023-01-29T03:14:36.756Z,19.00
2023-01-29T03:17:09.432Z,18.20
2023-01-29T03:19:41.861Z,18.10
2023-01-29T03:22:11.722Z,16.80
2023-01-29T03:24:46.701Z,16.20
2023-01-29T03:27:16.820Z,15.70
2023-01-29T03:29:49.270Z,17.00
2023-01-29T03:32:18.826Z,17.90
2023-01-29T03:34:50.309Z,16.40
2023-01-29T03:39:50.895Z,17.70
2023-01-29T03:42:54.081Z,17.60
2023-01-29T03:45:31.371Z,16.60
2023-01-29T03:48:28.552Z,18.50
2023-01-29T03:51:19.829Z,15.90
2023-01-29T03:53:55.172Z,17.40
2023-01-29T03:56:30.801Z,15.90
2023-01-29T03:59:16.137Z,16.90
2023-01-29T04:01:51.245Z,16.50
2023-01-29T04:04:26.683Z,18.00
2023-01-29T04:06:57.513Z,16.80
2023-01-29T04:09:34.347Z,15.20
2023-01-29T04:12:14.371Z,15.40
2023-01-29T04:14:40.951Z,15.60
2023-01-29T04:17:16.546Z,17.00
2023-01-29T04:19:43.859Z,17.60
2023-01-29T04:22:34.215Z,17.80
2023-01-29T04:25:05.816Z,18.90
2023-01-29T04:30:35.764Z,17.00
2023-01-29T04:33:44.160Z,18.80
2023-01-29T04:36:21.451Z,17.90
2023-01-29T04:38:57.937Z,18.10
2023-01-29T04:41:36.063Z,17.40
2023-01-29T04:44:20.948Z,16.10
2023-01-29T04:46:47.353Z,16.20
2023-01-29T04:49:32.663Z,17.10
2023-01-29T04:52:17.523Z,18.00
2023-01-29T04:55:08.747Z,17.10
2023-01-29T04:57:52.678Z,21.60
2023-01-29T05:00:30.298Z,17.50
2023-01-29T05:02:57.286Z,20.80
2023-01-29T05:05:24.160Z,21.10
2023-01-29T05:07:51.115Z,20.60
2023-01-29T05:10:20.462Z,21.20
2023-01-29T05:12:52.860Z,26.70
2023-01-29T05:15:25.330Z,21.50
2023-01-29T05:17:52.565Z,22.80
2023-01-29T05:20:20.276Z,35.60
2023-01-29T05:22:47.898Z,20.30
2023-01-29T05:25:26.930Z,18.60
2023-01-29T05:27:54.519Z,18.80
2023-01-29T05:30:21.010Z,18.30
2023-01-29T05:32:47.474Z,18.20
2023-01-29T05:35:14.144Z,17.20
2023-01-29T05:37:40.659Z,16.40
2023-01-29T05:40:08.142Z,16.10
2023-01-29T05:42:34.597Z,16.80
2023-01-29T05:45:01.063Z,16.30
2023-01-29T05:47:27.581Z,17.60
2023-01-29T05:49:54.076Z,18.70
2023-01-29T05:52:20.571Z,21.60
2023-01-29T05:54:47.823Z,22.20
2023-01-29T05:57:15.012Z,18.80
2023-01-29T05:59:41.780Z,20.30
2023-01-29T06:02:08.865Z,20.50
2023-01-29T06:04:35.474Z,20.30
2023-01-29T06:07:02.016Z,21.90
2023-01-29T06:09:28.507Z,25.20
2023-01-29T06:11:55.162Z,19.90
2023-01-29T06:14:22.181Z,14.40
2023-01-29T06:16:48.791Z,12.20
2023-01-29T06:19:15.371Z,12.50
2023-01-29T06:21:41.883Z,11.40
2023-01-29T06:24:09.235Z,11.60
2023-01-29T06:26:35.792Z,12.20
2023-01-29T06:29:02.253Z,13.40
2023-01-29T06:31:38.554Z,14.70
2023-01-29T06:34:09.457Z,14.70
2023-01-29T06:36:36.408Z,14.30
2023-01-29T06:39:03.843Z,15.10
2023-01-29T06:41:30.700Z,15.00
2023-01-29T06:43:57.332Z,17.40
2023-01-29T06:46:24.054Z,20.40
2023-01-29T06:48:50.727Z,24.90
2023-01-29T06:51:17.621Z,26.80
2023-01-29T06:53:46.202Z,22.10
2023-01-29T06:56:13.292Z,21.90
2023-01-29T06:58:39.955Z,20.80
2023-01-29T07:01:09.705Z,20.30
2023-01-29T07:03:36.636Z,21.50
2023-01-29T07:06:03.575Z,19.80
2023-01-29T07:08:30.253Z,19.30
2023-01-29T07:11:00.870Z,25.00
2023-01-29T07:13:27.578Z,55.40
2023-01-29T07:15:54.134Z,22.50
2023-01-29T07:18:20.626Z,17.10
2023-01-29T07:20:47.431Z,18.10
2023-01-29T07:23:14.993Z,17.60
2023-01-29T07:25:41.819Z,16.00
2023-01-29T07:28:08.305Z,17.90
2023-01-29T07:30:36.118Z,17.40
2023-01-29T07:33:07.604Z,16.30
2023-01-29T07:38:05.012Z,15.80
2023-01-29T07:40:31.510Z,17.10
2023-01-29T07:43:02.616Z,16.20
2023-01-29T07:45:30.152Z,16.50
2023-01-29T07:47:57.389Z,16.30
2023-01-29T07:50:25.419Z,15.20
2023-01-29T07:52:52.102Z,16.60
2023-01-29T07:55:18.528Z,16.60
2023-01-29T07:57:45.135Z,17.00
2023-01-29T08:00:12.966Z,17.20
2023-01-29T08:02:39.921Z,15.80
2023-01-29T08:05:07.258Z,19.10
2023-01-29T08:07:33.931Z,19.10
2023-01-29T08:10:00.414Z,18.20
2023-01-29T08:12:26.938Z,15.20
2023-01-29T08:14:53.745Z,14.80
2023-01-29T08:17:20.205Z,14.50
2023-01-29T08:19:46.759Z,16.00
2023-01-29T08:22:13.202Z,15.00
2023-01-29T08:24:53.362Z,16.40
2023-01-29T08:27:26.117Z,17.20
2023-01-29T08:29:52.562Z,18.00
2023-01-29T08:32:18.985Z,17.20
2023-01-29T08:34:45.586Z,15.60
2023-01-29T08:37:12.091Z,16.90
2023-01-29T08:39:38.730Z,14.80
2023-01-29T08:42:05.268Z,15.80
2023-01-29T08:44:31.693Z,13.10
2023-01-29T08:46:58.151Z,14.00
2023-01-29T08:49:25.109Z,13.80
2023-01-29T08:51:51.599Z,14.60
2023-01-29T08:54:18.259Z,14.10
2023-01-29T08:56:44.813Z,14.50
2023-01-29T08:59:11.343Z,13.80
2023-01-29T09:01:37.906Z,16.80
2023-01-29T09:04:04.642Z,16.90
2023-01-29T09:06:31.163Z,11.90
2023-01-29T09:08:57.571Z,13.70
2023-01-29T09:11:24.302Z,15.40
2023-01-29T09:13:50.801Z,13.70
2023-01-29T09:16:17.401Z,13.60
2023-01-29T09:18:43.924Z,14.80
2023-01-29T09:21:11.326Z,10.60
2023-01-29T09:23:38.097Z,13.70
2023-01-29T09:26:04.697Z,11.60
2023-01-29T09:28:31.177Z,10.00
2023-01-29T09:31:01.837Z,8.30
2023-01-29T09:33:28.681Z,8.10
2023-01-29T09:35:55.192Z,9.10
2023-01-29T09:38:21.843Z,8.40
2023-01-29T09:41:00.525Z,10.30
2023-01-29T09:44:02.101Z,9.10
2023-01-29T09:46:42.290Z,10.80
2023-01-29T09:49:23.948Z,8.30
2023-01-29T09:54:29.843Z,7.50
2023-01-29T09:56:58.000Z,10.60
2023-01-29T09:59:30.096Z,9.20
2023-01-29T10:02:09.346Z,7.70
2023-01-29T10:04:54.598Z,7.50
2023-01-29T10:07:52.605Z,8.80
2023-01-29T10:10:26.116Z,10.90
2023-01-29T10:13:20.517Z,9.40
2023-01-29T10:15:58.930Z,9.10
2023-01-29T10:19:02.748Z,11.10
2023-01-29T10:21:57.956Z,10.40
2023-01-29T10:24:41.729Z,10.90
2023-01-29T10:27:16.769Z,10.20
2023-01-29T10:29:45.439Z,10.40
2023-01-29T10:32:16.429Z,10.20
2023-01-29T10:34:49.945Z,10.70
2023-01-29T10:37:20.632Z,10.20
2023-01-29T10:39:47.422Z,10.50
2023-01-29T10:42:29.028Z,10.50
2023-01-29T10:47:40.459Z,8.10
2023-01-29T10:50:28.479Z,9.10
2023-01-29T10:53:24.636Z,8.50
2023-01-29T10:56:23.097Z,8.00
2023-01-29T10:59:29.182Z,7.90
2023-01-29T11:01:59.889Z,9.90
2023-01-29T11:04:31.970Z,8.80
2023-01-29T11:06:59.962Z,7.90
2023-01-29T11:12:06.819Z,7.50
2023-01-29T11:14:33.322Z,9.80
2023-01-29T11:17:00.095Z,8.50
2023-01-29T11:19:44.462Z,8.10
2023-01-29T11:22:20.229Z,8.20
2023-01-29T11:25:07.616Z,6.70
2023-01-29T11:27:43.873Z,6.50
2023-01-29T11:30:41.525Z,6.30
2023-01-29T11:33:20.185Z,6.10
2023-01-29T11:35:46.912Z,5.50
2023-01-29T11:38:16.525Z,6.40
2023-01-29T11:40:44.212Z,5.80
2023-01-29T11:43:18.294Z,6.60
2023-01-29T11:45:45.689Z,6.30
2023-01-29T11:48:21.403Z,6.40
2023-01-29T11:50:56.766Z,5.60
2023-01-29T11:53:45.231Z,4.80
2023-01-29T11:56:28.786Z,5.40
2023-01-29T11:58:58.120Z,6.50
2023-01-29T12:01:37.385Z,5.80
2023-01-29T12:04:20.245Z,5.10
2023-01-29T12:06:49.718Z,6.30
2023-01-29T12:09:19.394Z,5.00
2023-01-29T12:11:45.896Z,5.60
2023-01-29T12:14:28.736Z,5.20
2023-01-29T12:17:31.048Z,5.80
2023-01-29T12:20:04.622Z,5.90
2023-01-29T12:22:47.848Z,6.90
2023-01-29T12:25:22.781Z,5.70
2023-01-29T12:28:14.819Z,5.30
2023-01-29T12:33:43.997Z,6.00
2023-01-29T12:36:19.504Z,6.90
2023-01-29T12:38:45.995Z,5.40
2023-01-29T12:41:37.761Z,5.40
2023-01-29T12:44:11.825Z,5.40
2023-01-29T12:46:44.425Z,5.70
2023-01-29T12:49:16.443Z,7.80
2023-01-29T12:51:51.070Z,6.70
2023-01-29T12:54:34.495Z,7.10
2023-01-29T12:57:04.410Z,8.20
2023-01-29T12:59:47.520Z,6.70
2023-01-29T13:02:40.437Z,5.80
2023-01-29T13:05:16.139Z,6.90
2023-01-29T13:07:52.335Z,6.70
2023-01-29T13:10:29.320Z,6.90
2023-01-29T13:13:05.680Z,7.40
2023-01-29T13:15:39.179Z,7.00
2023-01-29T13:18:30.302Z,7.60
2023-01-29T13:20:57.309Z,7.50
2023-01-29T13:23:41.905Z,8.40
2023-01-29T13:26:09.005Z,7.60
2023-01-29T13:28:36.420Z,8.10
2023-01-29T13:31:31.568Z,8.60
2023-01-29T13:34:13.307Z,8.00
2023-01-29T13:39:35.645Z,7.60
2023-01-29T13:42:14.795Z,9.40
2023-01-29T13:44:41.677Z,8.10
2023-01-29T13:47:11.472Z,8.70
2023-01-29T13:49:53.295Z,7.00
2023-01-29T13:52:37.269Z,9.00
2023-01-29T13:55:25.980Z,7.70
2023-01-29T13:57:57.063Z,7.60
2023-01-29T14:00:23.495Z,8.20
2023-01-29T14:02:55.945Z,9.50
2023-01-29T14:05:31.595Z,8.80
2023-01-29T14:08:00.092Z,11.70
2023-01-29T14:10:29.383Z,13.60
2023-01-29T14:13:05.088Z,11.10
2023-01-29T14:15:36.257Z,10.70
2023-01-29T14:18:05.115Z,11.50
2023-01-29T14:20:48.965Z,9.30
2023-01-29T14:23:51.403Z,9.60
2023-01-29T14:26:30.053Z,9.70
2023-01-29T14:29:21.656Z,9.10
2023-01-29T14:32:23.573Z,10.80
2023-01-29T14:35:01.703Z,12.00
2023-01-29T14:37:35.894Z,10.90
2023-01-29T14:40:11.666Z,11.40
2023-01-29T14:43:01.347Z,11.90
2023-01-29T14:45:30.680Z,11.70
2023-01-29T14:48:11.653Z,12.40
2023-01-29T14:50:42.593Z,12.30
2023-01-29T14:53:22.940Z,11.60
2023-01-29T14:56:01.360Z,13.60
2023-01-29T14:58:38.766Z,13.20
2023-01-29T15:01:14.969Z,15.70
2023-01-29T15:03:51.401Z,19.00
2023-01-29T15:06:33.616Z,15.60
2023-01-29T15:09:18.261Z,16.60
2023-01-29T15:12:13.779Z,15.50
2023-01-29T15:15:18.264Z,16.80
2023-01-29T15:18:05.641Z,16.70
2023-01-29T15:20:36.556Z,18.30
2023-01-29T15:23:05.276Z,18.70
2023-01-29T15:25:37.497Z,17.00
2023-01-29T15:28:05.455Z,18.30
2023-01-29T15:30:34.287Z,19.20
2023-01-29T15:33:02.702Z,19.00
2023-01-29T15:35:35.500Z,21.20
2023-01-29T15:38:21.403Z,21.70
2023-01-29T15:41:02.637Z,23.70
2023-01-29T15:43:31.798Z,33.40
2023-01-29T15:46:01.601Z,34.60
2023-01-29T15:48:36.234Z,27.40
2023-01-29T15:51:07.189Z,21.90
2023-01-29T15:53:40.905Z,28.60
2023-01-29T15:56:12.358Z,26.10
2023-01-29T16:01:06.745Z,27.30
2023-01-29T16:03:34.791Z,29.20
2023-01-29T16:06:02.381Z,32.00
2023-01-29T16:08:29.413Z,32.00
2023-01-29T16:10:59.356Z,33.50
2023-01-29T16:13:29.824Z,30.90
2023-01-29T16:16:01.592Z,33.90
2023-01-29T16:18:36.303Z,37.50
2023-01-29T16:21:15.727Z,44.50
2023-01-29T16:23:45.762Z,49.90
2023-01-29T16:26:16.813Z,45.60
2023-01-29T16:28:45.798Z,37.30
2023-01-29T16:31:14.258Z,40.70
2023-01-29T16:33:43.319Z,40.10
2023-01-29T16:36:22.515Z,32.40
2023-01-29T16:38:56.949Z,28.30
2023-01-29T16:41:23.361Z,30.30
2023-01-29T16:44:03.360Z,29.50
2023-01-29T16:46:37.417Z,27.60
2023-01-29T16:49:26.148Z,24.90
2023-01-29T16:51:53.797Z,28.40
2023-01-29T16:54:25.589Z,29.70
2023-01-29T16:56:55.798Z,29.90
2023-01-29T16:59:31.224Z,28.70
2023-01-29T17:01:58.782Z,69.20
2023-01-29T17:04:25.284Z,50.10
2023-01-29T17:07:01.189Z,64.20
2023-01-29T17:09:32.107Z,43.50
2023-01-29T17:12:01.886Z,36.00
2023-01-29T17:14:31.352Z,37.10
2023-01-29T17:17:06.530Z,38.80
2023-01-29T17:19:33.687Z,32.20
2023-01-29T17:22:00.307Z,32.20
2023-01-29T17:24:26.936Z,31.00
2023-01-29T17:26:54.037Z,31.70
2023-01-29T17:29:31.198Z,31.60
2023-01-29T17:31:58.071Z,35.90
2023-01-29T17:34:24.663Z,33.60
2023-01-29T17:36:51.521Z,31.60
2023-01-29T17:39:24.458Z,38.80
2023-01-29T17:41:56.320Z,34.40
2023-01-29T17:44:23.207Z,36.70
2023-01-29T17:46:49.988Z,33.90
2023-01-29T17:49:25.607Z,38.20
2023-01-29T17:51:53.587Z,39.10
2023-01-29T17:54:20.715Z,45.10
2023-01-29T17:56:48.202Z,42.40
2023-01-29T17:59:17.008Z,41.90
2023-01-29T18:01:43.943Z,44.10
2023-01-29T18:04:11.639Z,58.30
2023-01-29T18:06:39.947Z,88.40
2023-01-29T18:09:06.841Z,62.10
2023-01-29T18:11:34.350Z,49.10
2023-01-29T18:14:11.359Z,42.10
2023-01-29T18:16:42.344Z,49.90
2023-01-29T18:19:24.118Z,49.40
2023-01-29T18:24:17.202Z,51.50
2023-01-29T18:26:43.728Z,67.10
2023-01-29T18:29:10.226Z,62.10
2023-01-29T18:31:37.293Z,44.60
2023-01-29T18:34:04.295Z,45.60
2023-01-29T18:36:31.060Z,45.50
2023-01-29T18:38:58.295Z,47.50
2023-01-29T18:41:24.827Z,49.90
2023-01-29T18:43:52.087Z,52.70
2023-01-29T18:46:19.870Z,49.40
2023-01-29T18:48:46.622Z,47.00
2023-01-29T18:51:13.151Z,48.30
2023-01-29T18:53:39.699Z,47.30
2023-01-29T18:56:07.637Z,51.00
2023-01-29T18:58:36.623Z,49.50
2023-01-29T19:01:10.424Z,49.50
2023-01-29T19:03:38.386Z,54.10
2023-01-29T19:06:07.154Z,51.00
2023-01-29T19:08:34.309Z,49.60
2023-01-29T19:11:01.244Z,50.10
2023-01-29T19:13:31.748Z,52.10
2023-01-29T19:15:58.848Z,46.40
2023-01-29T19:18:25.457Z,48.00
2023-01-29T19:20:52.716Z,57.60
2023-01-29T19:23:19.579Z,53.20
2023-01-29T19:25:46.427Z,58.70
2023-01-29T19:28:13.361Z,67.00
2023-01-29T19:30:40.866Z,58.70
2023-01-29T19:33:07.775Z,46.50
2023-01-29T19:35:34.619Z,52.90
2023-01-29T19:38:01.469Z,47.70
2023-01-29T19:40:28.310Z,43.00
2023-01-29T19:42:55.470Z,43.00
2023-01-29T19:45:37.328Z,44.40
2023-01-29T19:48:09.235Z,43.70
2023-01-29T19:50:35.648Z,41.90
2023-01-29T19:53:02.201Z,31.30
2023-01-29T19:55:28.647Z,32.60
2023-01-29T19:57:55.690Z,33.00
2023-01-29T20:00:22.448Z,32.10
2023-01-29T20:02:49.176Z,33.50
2023-01-29T20:05:16.204Z,31.30
2023-01-29T20:07:43.178Z,33.10
2023-01-29T20:10:11.450Z,33.10
2023-01-29T20:12:38.204Z,30.70
2023-01-29T20:15:06.196Z,29.90
2023-01-29T20:17:33.032Z,29.10
2023-01-29T20:19:59.765Z,31.20
2023-01-29T20:22:26.819Z,29.70
2023-01-29T20:24:54.202Z,30.40
2023-01-29T20:27:20.673Z,32.00
2023-01-29T20:29:47.151Z,30.00
2023-01-29T20:32:13.956Z,33.10
2023-01-29T20:34:41.470Z,30.60
2023-01-29T20:37:08.212Z,33.00
2023-01-29T20:39:34.840Z,32.10
2023-01-29T20:42:01.701Z,29.00
2023-01-29T20:44:28.450Z,27.80
2023-01-29T20:46:55.179Z,27.40
2023-01-29T20:49:21.682Z,28.50
2023-01-29T20:51:48.163Z,26.10
2023-01-29T20:54:14.904Z,23.70
2023-01-29T20:56:44.116Z,23.90
2023-01-29T20:59:14.079Z,25.10
2023-01-29T21:01:41.539Z,26.70
2023-01-29T21:04:08.034Z,27.80
2023-01-29T21:06:34.666Z,26.80
2023-01-29T21:09:01.315Z,30.30
2023-01-29T21:11:27.945Z,29.90
2023-01-29T21:13:54.506Z,34.90
2023-01-29T21:16:21.172Z,31.20
2023-01-29T21:18:47.701Z,29.30
2023-01-29T21:21:14.315Z,28.50
2023-01-29T21:23:40.861Z,27.80
2023-01-29T21:26:07.338Z,28.40
2023-01-29T21:28:34.865Z,28.70
2023-01-29T21:31:06.832Z,28.10
2023-01-29T21:33:33.475Z,28.00
2023-01-29T21:36:01.006Z,29.70
2023-01-29T21:38:27.713Z,27.90
2023-01-29T21:40:59.935Z,27.30
2023-01-29T21:43:26.612Z,29.30
2023-01-29T21:46:01.251Z,29.70
2023-01-29T21:48:27.779Z,29.70
2023-01-29T21:50:54.208Z,30.10
2023-01-29T21:53:20.747Z,85.10
2023-01-29T21:55:47.723Z,59.40
2023-01-29T21:58:14.726Z,52.40
2023-01-29T22:00:41.703Z,32.80
2023-01-29T22:03:08.275Z,33.50
2023-01-29T22:05:34.791Z,34.10
2023-01-29T22:08:01.633Z,33.20
2023-01-29T22:10:28.476Z,34.30
2023-01-29T22:12:54.898Z,34.60
2023-01-29T22:15:23.586Z,31.30
2023-01-29T22:17:51.061Z,32.00
2023-01-29T22:20:18.342Z,35.70
2023-01-29T22:22:45.061Z,35.10
2023-01-29T22:25:11.553Z,37.40
2023-01-29T22:27:37.997Z,39.70
2023-01-29T22:30:05.865Z,42.20
2023-01-29T22:32:32.819Z,36.70
2023-01-29T22:34:59.404Z,35.20
2023-01-29T22:37:25.894Z,35.00
2023-01-29T22:39:52.380Z,36.50
2023-01-29T22:42:19.653Z,34.80
2023-01-29T22:44:46.097Z,36.50
2023-01-29T22:47:12.543Z,35.00
2023-01-29T22:49:39.059Z,36.10
2023-01-29T22:52:05.579Z,34.00
2023-01-29T22:54:32.031Z,37.40
2023-01-29T22:56:58.516Z,39.60
2023-01-29T22:59:25.218Z,39.10
2023-01-29T23:01:51.841Z,39.20
2023-01-29T23:04:18.337Z,46.30
2023-01-29T23:06:44.854Z,48.30
2023-01-29T23:09:11.419Z,52.00
2023-01-29T23:11:37.848Z,56.40
2023-01-29T23:14:04.582Z,55.40
2023-01-29T23:16:31.274Z,57.50
2023-01-29T23:18:57.798Z,58.20
2023-01-29T23:21:25.767Z,61.70
2023-01-29T23:23:52.603Z,65.80
2023-01-29T23:26:19.112Z,64.90
2023-01-29T23:28:46.117Z,63.80
2023-01-29T23:31:13.549Z,59.90
2023-01-29T23:33:40.443Z,59.60
2023-01-29T23:36:07.876Z,62.40
2023-01-29T23:38:34.363Z,60.70
2023-01-29T23:41:01.008Z,60.10
2023-01-29T23:43:30.468Z,55.30
2023-01-29T23:45:57.421Z,52.60
2023-01-29T23:48:24.822Z,54.50
2023-01-29T23:50:51.879Z,57.00
2023-01-29T23:53:18.619Z,55.30
2023-01-29T23:55:56.143Z,56.20
2023-01-29T23:58:23.063Z,61.20
